sensor_id;sensor_type;location;lat;lon;timestamp;pressure;altitude;pressure_sealevel;temperature;humidity
19600;BME280;9947;57.722;12.012;2022-07-22T00:01:26;100721.03;;;18.39;86.71
19600;BME280;9947;57.722;12.012;2022-07-22T00:03:52;100724.97;;;18.37;86.65
19600;BME280;9947;57.722;12.012;2022-07-22T00:06:19;100726.84;;;18.36;86.66
19600;BME280;9947;57.722;12.012;2022-07-22T00:08:50;100735.44;;;18.49;86.56
19600;BME280;9947;57.722;12.012;2022-07-22T00:11:17;100726.53;;;18.56;86.46
19600;BME280;9947;57.722;12.012;2022-07-22T00:13:44;100720.25;;;18.63;86.14
19600;BME280;9947;57.722;12.012;2022-07-22T00:16:13;100708.41;;;18.71;85.96
19600;BME280;9947;57.722;12.012;2022-07-22T00:18:40;100715.44;;;18.73;85.80
19600;BME280;9947;57.722;12.012;2022-07-22T00:21:07;100724.38;;;18.75;85.91
19600;BME280;9947;57.722;12.012;2022-07-22T00:23:35;100716.50;;;18.81;85.73
19600;BME280;9947;57.722;12.012;2022-07-22T00:26:02;100711.34;;;18.86;85.76
19600;BME280;9947;57.722;12.012;2022-07-22T00:28:29;100711.00;;;18.81;85.70
19600;BME280;9947;57.722;12.012;2022-07-22T00:30:56;100716.47;;;18.89;85.67
19600;BME280;9947;57.722;12.012;2022-07-22T00:33:25;100715.28;;;18.91;85.69
19600;BME280;9947;57.722;12.012;2022-07-22T00:35:52;100719.38;;;18.95;85.45
19600;BME280;9947;57.722;12.012;2022-07-22T00:38:19;100721.75;;;18.98;85.45
19600;BME280;9947;57.722;12.012;2022-07-22T00:40:47;100722.81;;;19.05;85.36
19600;BME280;9947;57.722;12.012;2022-07-22T00:43:14;100716.16;;;19.00;85.34
19600;BME280;9947;57.722;12.012;2022-07-22T00:45:41;100723.34;;;19.01;85.38
19600;BME280;9947;57.722;12.012;2022-07-22T00:48:07;100725.38;;;19.07;85.28
19600;BME280;9947;57.722;12.012;2022-07-22T00:50:36;100724.84;;;19.12;85.43
19600;BME280;9947;57.722;12.012;2022-07-22T00:53:03;100722.63;;;19.15;85.19
19600;BME280;9947;57.722;12.012;2022-07-22T00:55:30;100725.03;;;19.10;85.33
19600;BME280;9947;57.722;12.012;2022-07-22T00:57:57;100719.72;;;19.08;85.36
19600;BME280;9947;57.722;12.012;2022-07-22T01:00:23;100725.03;;;19.10;85.35
19600;BME280;9947;57.722;12.012;2022-07-22T01:02:50;100712.69;;;19.14;85.52
19600;BME280;9947;57.722;12.012;2022-07-22T01:05:17;100711.66;;;19.15;85.35
19600;BME280;9947;57.722;12.012;2022-07-22T01:07:45;100717.13;;;19.15;85.37
19600;BME280;9947;57.722;12.012;2022-07-22T01:10:13;100716.78;;;19.18;85.24
19600;BME280;9947;57.722;12.012;2022-07-22T01:12:40;100705.31;;;19.15;85.41
19600;BME280;9947;57.722;12.012;2022-07-22T01:15:08;100704.25;;;19.24;85.28
19600;BME280;9947;57.722;12.012;2022-07-22T01:17:35;100710.59;;;19.24;85.12
19600;BME280;9947;57.722;12.012;2022-07-22T01:20:06;100697.25;;;19.29;85.00
19600;BME280;9947;57.722;12.012;2022-07-22T01:22:33;100708.19;;;19.37;85.04
19600;BME280;9947;57.722;12.012;2022-07-22T01:25:00;100701.69;;;19.30;84.91
19600;BME280;9947;57.722;12.012;2022-07-22T01:27:27;100700.13;;;19.36;84.77
19600;BME280;9947;57.722;12.012;2022-07-22T01:29:55;100703.72;;;19.36;84.90
19600;BME280;9947;57.722;12.012;2022-07-22T01:32:22;100707.50;;;19.35;84.93
19600;BME280;9947;57.722;12.012;2022-07-22T01:34:49;100706.69;;;19.27;84.82
19600;BME280;9947;57.722;12.012;2022-07-22T01:37:18;100701.69;;;19.30;84.96
19600;BME280;9947;57.722;12.012;2022-07-22T01:39:45;100697.94;;;19.31;84.80
19600;BME280;9947;57.722;12.012;2022-07-22T01:42:12;100703.41;;;19.31;84.92
19600;BME280;9947;57.722;12.012;2022-07-22T01:44:38;100705.63;;;19.36;84.95
19600;BME280;9947;57.722;12.012;2022-07-22T01:47:05;100705.78;;;19.34;85.05
19600;BME280;9947;57.722;12.012;2022-07-22T01:49:35;100712.28;;;19.41;84.90
19600;BME280;9947;57.722;12.012;2022-07-22T01:52:03;100701.84;;;19.37;84.91
19600;BME280;9947;57.722;12.012;2022-07-22T01:54:32;100704.06;;;19.41;84.87
19600;BME280;9947;57.722;12.012;2022-07-22T01:56:59;100699.59;;;19.40;84.76
19600;BME280;9947;57.722;12.012;2022-07-22T01:59:26;100705.44;;;19.37;85.00
19600;BME280;9947;57.722;12.012;2022-07-22T02:01:53;100705.66;;;19.28;85.02
19600;BME280;9947;57.722;12.012;2022-07-22T02:04:20;100704.78;;;19.19;84.98
19600;BME280;9947;57.722;12.012;2022-07-22T02:06:47;100706.00;;;19.17;85.03
19600;BME280;9947;57.722;12.012;2022-07-22T02:09:13;100698.78;;;19.24;84.98
19600;BME280;9947;57.722;12.012;2022-07-22T02:11:42;100706.00;;;19.17;85.14
19600;BME280;9947;57.722;12.012;2022-07-22T02:14:08;100703.97;;;19.10;85.05
19600;BME280;9947;57.722;12.012;2022-07-22T02:16:36;100699.72;;;19.00;85.26
19600;BME280;9947;57.722;12.012;2022-07-22T02:19:03;100708.75;;;19.08;85.17
19600;BME280;9947;57.722;12.012;2022-07-22T02:21:30;100709.09;;;19.14;84.96
19600;BME280;9947;57.722;12.012;2022-07-22T02:23:57;100697.97;;;19.07;85.33
19600;BME280;9947;57.722;12.012;2022-07-22T02:26:24;100694.03;;;18.93;85.39
19600;BME280;9947;57.722;12.012;2022-07-22T02:28:53;100701.94;;;18.88;85.39
19600;BME280;9947;57.722;12.012;2022-07-22T02:31:20;100705.88;;;18.86;85.38
19600;BME280;9947;57.722;12.012;2022-07-22T02:33:47;100697.66;;;18.77;85.49
19600;BME280;9947;57.722;12.012;2022-07-22T02:36:14;100705.88;;;18.77;85.39
19600;BME280;9947;57.722;12.012;2022-07-22T02:38:41;100706.72;;;18.78;85.45
19600;BME280;9947;57.722;12.012;2022-07-22T02:41:08;100720.25;;;18.88;85.32
19600;BME280;9947;57.722;12.012;2022-07-22T02:43:34;100712.22;;;18.78;85.80
19600;BME280;9947;57.722;12.012;2022-07-22T02:46:03;100715.28;;;18.75;85.82
19600;BME280;9947;57.722;12.012;2022-07-22T02:48:29;100714.44;;;18.74;85.78
19600;BME280;9947;57.722;12.012;2022-07-22T02:50:58;100722.13;;;18.79;85.71
19600;BME280;9947;57.722;12.012;2022-07-22T02:53:27;100721.47;;;18.77;85.85
19600;BME280;9947;57.722;12.012;2022-07-22T02:56:00;100720.59;;;18.85;86.02
19600;BME280;9947;57.722;12.012;2022-07-22T02:58:26;100725.22;;;18.84;86.02
19600;BME280;9947;57.722;12.012;2022-07-22T03:00:53;100721.28;;;18.78;85.96
19600;BME280;9947;57.722;12.012;2022-07-22T03:03:22;100721.28;;;18.78;86.11
19600;BME280;9947;57.722;12.012;2022-07-22T03:05:49;100724.69;;;18.72;86.45
19600;BME280;9947;57.722;12.012;2022-07-22T03:08:16;100714.09;;;18.77;86.57
19600;BME280;9947;57.722;12.012;2022-07-22T03:10:43;100727.59;;;18.71;86.78
19600;BME280;9947;57.722;12.012;2022-07-22T03:13:10;100726.38;;;18.73;86.92
19600;BME280;9947;57.722;12.012;2022-07-22T03:15:37;100724.50;;;18.66;87.22
19600;BME280;9947;57.722;12.012;2022-07-22T03:18:03;100719.19;;;18.72;86.98
19600;BME280;9947;57.722;12.012;2022-07-22T03:20:32;100722.28;;;18.69;87.38
19600;BME280;9947;57.722;12.012;2022-07-22T03:23:00;100724.00;;;18.70;87.29
19600;BME280;9947;57.722;12.012;2022-07-22T03:25:32;100713.38;;;18.67;87.47
19600;BME280;9947;57.722;12.012;2022-07-22T03:27:59;100713.72;;;18.64;87.28
19600;BME280;9947;57.722;12.012;2022-07-22T03:30:27;100711.31;;;18.61;87.49
19600;BME280;9947;57.722;12.012;2022-07-22T03:32:55;100703.81;;;18.63;87.57
19600;BME280;9947;57.722;12.012;2022-07-22T03:35:24;100706.69;;;18.62;87.58
19600;BME280;9947;57.722;12.012;2022-07-22T03:37:52;100703.81;;;18.63;87.76
19600;BME280;9947;57.722;12.012;2022-07-22T03:40:22;100705.84;;;18.69;87.78
19600;BME280;9947;57.722;12.012;2022-07-22T03:42:49;100709.28;;;18.71;88.21
19600;BME280;9947;57.722;12.012;2022-07-22T03:45:16;100705.50;;;18.72;88.05
19600;BME280;9947;57.722;12.012;2022-07-22T03:47:43;100707.22;;;18.73;88.25
19600;BME280;9947;57.722;12.012;2022-07-22T03:50:10;100706.34;;;18.57;88.53
19600;BME280;9947;57.722;12.012;2022-07-22T03:52:36;100700.22;;;18.63;88.07
19600;BME280;9947;57.722;12.012;2022-07-22T03:55:06;100706.03;;;18.68;88.29
19600;BME280;9947;57.722;12.012;2022-07-22T03:57:33;100698.47;;;18.62;88.73
19600;BME280;9947;57.722;12.012;2022-07-22T04:00:00;100699.66;;;18.59;88.81
19600;BME280;9947;57.722;12.012;2022-07-22T04:02:27;100702.25;;;18.61;89.09
19600;BME280;9947;57.722;12.012;2022-07-22T04:04:54;100696.59;;;18.54;89.20
19600;BME280;9947;57.722;12.012;2022-07-22T04:07:20;100694.84;;;18.45;89.51
19600;BME280;9947;57.722;12.012;2022-07-22T04:09:47;100698.44;;;18.45;89.76
19600;BME280;9947;57.722;12.012;2022-07-22T04:12:15;100687.84;;;18.34;90.01
19600;BME280;9947;57.722;12.012;2022-07-22T04:14:42;100689.56;;;18.35;89.99
19600;BME280;9947;57.722;12.012;2022-07-22T04:17:10;100705.97;;;18.35;89.67
19600;BME280;9947;57.722;12.012;2022-07-22T04:19:37;100696.56;;;18.38;90.05
19600;BME280;9947;57.722;12.012;2022-07-22T04:22:04;100690.41;;;18.36;90.81
19600;BME280;9947;57.722;12.012;2022-07-22T04:24:34;100693.50;;;18.33;91.26
19600;BME280;9947;57.722;12.012;2022-07-22T04:27:01;100698.63;;;18.36;91.61
19600;BME280;9947;57.722;12.012;2022-07-22T04:29:29;100705.81;;;18.37;91.59
19600;BME280;9947;57.722;12.012;2022-07-22T04:31:56;100711.09;;;18.38;92.47
19600;BME280;9947;57.722;12.012;2022-07-22T04:34:23;100708.03;;;18.41;91.82
19600;BME280;9947;57.722;12.012;2022-07-22T04:36:50;100709.09;;;18.48;93.25
19600;BME280;9947;57.722;12.012;2022-07-22T04:39:16;100706.19;;;18.50;92.77
19600;BME280;9947;57.722;12.012;2022-07-22T04:41:44;100713.34;;;18.43;93.81
19600;BME280;9947;57.722;12.012;2022-07-22T04:44:11;100707.34;;;18.39;94.17
19600;BME280;9947;57.722;12.012;2022-07-22T04:46:39;100703.91;;;18.45;94.08
19600;BME280;9947;57.722;12.012;2022-07-22T04:49:06;100702.56;;;18.41;94.43
19600;BME280;9947;57.722;12.012;2022-07-22T04:51:32;100703.59;;;18.32;94.55
19600;BME280;9947;57.722;12.012;2022-07-22T04:53:59;100705.13;;;18.35;94.51
19600;BME280;9947;57.722;12.012;2022-07-22T04:56:26;100712.31;;;18.36;94.54
19600;BME280;9947;57.722;12.012;2022-07-22T04:58:53;100718.81;;;18.35;94.80
19600;BME280;9947;57.722;12.012;2022-07-22T05:01:20;100729.59;;;18.44;95.09
19600;BME280;9947;57.722;12.012;2022-07-22T05:03:48;100725.81;;;18.45;95.38
19600;BME280;9947;57.722;12.012;2022-07-22T05:06:14;100731.31;;;18.54;95.20
19600;BME280;9947;57.722;12.012;2022-07-22T05:08:41;100726.53;;;18.56;95.40
19600;BME280;9947;57.722;12.012;2022-07-22T05:11:08;100735.91;;;18.45;95.67
19600;BME280;9947;57.722;12.012;2022-07-22T05:13:38;100733.69;;;18.32;95.62
19600;BME280;9947;57.722;12.012;2022-07-22T05:16:06;100733.16;;;18.37;95.38
19600;BME280;9947;57.722;12.012;2022-07-22T05:18:32;100732.66;;;18.41;95.55
19600;BME280;9947;57.722;12.012;2022-07-22T05:21:01;100738.31;;;18.40;95.53
19600;BME280;9947;57.722;12.012;2022-07-22T05:23:28;100736.25;;;18.42;95.79
19600;BME280;9947;57.722;12.012;2022-07-22T05:25:55;100742.97;;;18.56;95.79
19600;BME280;9947;57.722;12.012;2022-07-22T05:28:21;100736.06;;;18.35;96.14
19600;BME280;9947;57.722;12.012;2022-07-22T05:30:48;100740.69;;;18.35;95.87
19600;BME280;9947;57.722;12.012;2022-07-22T05:33:15;100746.00;;;18.36;95.26
19600;BME280;9947;57.722;12.012;2022-07-22T05:35:42;100747.00;;;18.27;94.80
19600;BME280;9947;57.722;12.012;2022-07-22T05:38:10;100746.50;;;18.24;93.72
19600;BME280;9947;57.722;12.012;2022-07-22T05:40:37;100738.22;;;18.07;93.60
19600;BME280;9947;57.722;12.012;2022-07-22T05:43:05;100750.38;;;18.05;92.67
19600;BME280;9947;57.722;12.012;2022-07-22T05:45:34;100754.66;;;18.07;92.40
19600;BME280;9947;57.722;12.012;2022-07-22T05:48:01;100761.41;;;17.95;91.83
19600;BME280;9947;57.722;12.012;2022-07-22T05:50:28;100765.19;;;17.94;91.51
19600;BME280;9947;57.722;12.012;2022-07-22T05:52:54;100760.72;;;17.93;91.04
19600;BME280;9947;57.722;12.012;2022-07-22T05:55:22;100759.94;;;18.01;90.45
19600;BME280;9947;57.722;12.012;2022-07-22T05:57:49;100758.25;;;18.16;90.72
19600;BME280;9947;57.722;12.012;2022-07-22T06:00:17;100756.50;;;17.99;90.47
19600;BME280;9947;57.722;12.012;2022-07-22T06:02:44;100761.31;;;18.05;90.39
19600;BME280;9947;57.722;12.012;2022-07-22T06:05:12;100771.31;;;17.88;90.04
19600;BME280;9947;57.722;12.012;2022-07-22T06:07:39;100762.66;;;18.01;89.89
19600;BME280;9947;57.722;12.012;2022-07-22T06:10:06;100768.06;;;17.93;89.44
19600;BME280;9947;57.722;12.012;2022-07-22T06:12:35;100758.66;;;17.87;89.32
19600;BME280;9947;57.722;12.012;2022-07-22T06:15:02;100762.59;;;17.93;89.16
19600;BME280;9947;57.722;12.012;2022-07-22T06:17:29;100764.03;;;17.97;89.48
19600;BME280;9947;57.722;12.012;2022-07-22T06:19:55;100760.88;;;17.83;89.63
19600;BME280;9947;57.722;12.012;2022-07-22T06:22:22;100761.75;;;17.92;89.50
19600;BME280;9947;57.722;12.012;2022-07-22T06:24:49;100767.78;;;17.96;89.63
19600;BME280;9947;57.722;12.012;2022-07-22T06:27:16;100764.03;;;17.97;89.77
19600;BME280;9947;57.722;12.012;2022-07-22T06:29:44;100764.72;;;18.07;89.92
19600;BME280;9947;57.722;12.012;2022-07-22T06:32:11;100760.00;;;17.83;89.63
19600;BME280;9947;57.722;12.012;2022-07-22T06:34:38;100757.41;;;17.73;89.11
19600;BME280;9947;57.722;12.012;2022-07-22T06:37:05;100750.25;;;17.80;88.93
19600;BME280;9947;57.722;12.012;2022-07-22T06:39:33;100745.63;;;17.73;88.65
19600;BME280;9947;57.722;12.012;2022-07-22T06:42:00;100737.78;;;17.78;88.59
19600;BME280;9947;57.722;12.012;2022-07-22T06:44:27;100740.31;;;17.71;88.18
19600;BME280;9947;57.722;12.012;2022-07-22T06:46:55;100746.09;;;17.42;87.88
19600;BME280;9947;57.722;12.012;2022-07-22T06:49:25;100743.41;;;17.50;87.70
19600;BME280;9947;57.722;12.012;2022-07-22T06:51:51;100733.16;;;17.44;88.08
19600;BME280;9947;57.722;12.012;2022-07-22T06:54:18;100734.53;;;17.48;87.61
19600;BME280;9947;57.722;12.012;2022-07-22T06:56:45;100742.50;;;17.68;87.73
19600;BME280;9947;57.722;12.012;2022-07-22T06:59:13;100742.97;;;17.63;87.90
19600;BME280;9947;57.722;12.012;2022-07-22T07:01:39;100746.38;;;17.65;87.94
19600;BME280;9947;57.722;12.012;2022-07-22T07:04:08;100736.41;;;17.74;88.06
19600;BME280;9947;57.722;12.012;2022-07-22T07:06:35;100741.53;;;17.77;88.52
19600;BME280;9947;57.722;12.012;2022-07-22T07:09:02;100745.28;;;17.76;88.71
19600;BME280;9947;57.722;12.012;2022-07-22T07:11:29;100741.22;;;17.88;89.42
19600;BME280;9947;57.722;12.012;2022-07-22T07:13:56;100742.94;;;17.89;89.84
19600;BME280;9947;57.722;12.012;2022-07-22T07:16:23;100744.13;;;17.86;90.07
19600;BME280;9947;57.722;12.012;2022-07-22T07:18:49;100742.00;;;18.06;90.48
19600;BME280;9947;57.722;12.012;2022-07-22T07:21:18;100739.69;;;17.85;90.64
19600;BME280;9947;57.722;12.012;2022-07-22T07:23:45;100748.41;;;17.89;90.16
19600;BME280;9947;57.722;12.012;2022-07-22T07:26:12;100748.56;;;17.87;90.53
19600;BME280;9947;57.722;12.012;2022-07-22T07:28:39;100748.25;;;17.91;90.61
19600;BME280;9947;57.722;12.012;2022-07-22T07:31:05;100738.91;;;18.01;90.70
19600;BME280;9947;57.722;12.012;2022-07-22T07:33:33;100748.81;;;18.02;91.37
19600;BME280;9947;57.722;12.012;2022-07-22T07:36:01;100747.09;;;18.01;91.19
19600;BME280;9947;57.722;12.012;2022-07-22T07:38:29;100740.78;;;18.01;91.63
19600;BME280;9947;57.722;12.012;2022-07-22T07:41:07;100753.81;;;18.15;92.21
19600;BME280;9947;57.722;12.012;2022-07-22T07:43:34;100750.88;;;18.00;92.43
19600;BME280;9947;57.722;12.012;2022-07-22T07:46:01;100733.47;;;18.17;93.24
19600;BME280;9947;57.722;12.012;2022-07-22T07:48:28;100741.81;;;18.08;93.52
19600;BME280;9947;57.722;12.012;2022-07-22T07:50:55;100740.94;;;17.99;93.77
19600;BME280;9947;57.722;12.012;2022-07-22T07:53:21;100741.81;;;18.00;94.58
19600;BME280;9947;57.722;12.012;2022-07-22T07:55:51;100739.78;;;18.10;94.43
19600;BME280;9947;57.722;12.012;2022-07-22T07:58:18;100739.09;;;18.16;94.85
19600;BME280;9947;57.722;12.012;2022-07-22T08:00:45;100745.47;;;18.25;94.87
19600;BME280;9947;57.722;12.012;2022-07-22T08:03:12;100741.38;;;18.29;95.19
19600;BME280;9947;57.722;12.012;2022-07-22T08:05:42;100740.69;;;18.27;95.18
19600;BME280;9947;57.722;12.012;2022-07-22T08:08:09;100750.44;;;18.37;96.06
19600;BME280;9947;57.722;12.012;2022-07-22T08:10:36;100753.03;;;18.47;96.42
19600;BME280;9947;57.722;12.012;2022-07-22T08:13:04;100757.28;;;18.33;96.21
19600;BME280;9947;57.722;12.012;2022-07-22T08:15:31;100761.91;;;18.33;96.61
19600;BME280;9947;57.722;12.012;2022-07-22T08:17:58;100761.34;;;18.21;96.83
19600;BME280;9947;57.722;12.012;2022-07-22T08:20:26;100764.81;;;18.39;96.59
19600;BME280;9947;57.722;12.012;2022-07-22T08:22:53;100765.31;;;18.35;96.95
19600;BME280;9947;57.722;12.012;2022-07-22T08:25:20;100771.47;;;18.29;96.88
19600;BME280;9947;57.722;12.012;2022-07-22T08:27:48;100768.22;;;18.25;96.72
19600;BME280;9947;57.722;12.012;2022-07-22T08:30:16;100768.22;;;18.33;96.71
19600;BME280;9947;57.722;12.012;2022-07-22T08:32:43;100775.47;;;18.51;96.84
19600;BME280;9947;57.722;12.012;2022-07-22T08:35:10;100777.00;;;18.53;97.36
19600;BME280;9947;57.722;12.012;2022-07-22T08:37:37;100771.88;;;18.50;97.51
19600;BME280;9947;57.722;12.012;2022-07-22T08:40:06;100775.31;;;18.60;97.72
19600;BME280;9947;57.722;12.012;2022-07-22T08:42:36;100779.31;;;18.82;98.26
19600;BME280;9947;57.722;12.012;2022-07-22T08:45:05;100783.94;;;18.90;98.49
19600;BME280;9947;57.722;12.012;2022-07-22T08:47:33;100780.50;;;18.96;98.45
19600;BME280;9947;57.722;12.012;2022-07-22T08:50:00;100784.28;;;18.87;98.28
19600;BME280;9947;57.722;12.012;2022-07-22T08:52:27;100784.63;;;19.00;98.59
19600;BME280;9947;57.722;12.012;2022-07-22T08:54:54;100789.91;;;18.85;98.46
19600;BME280;9947;57.722;12.012;2022-07-22T08:57:21;100787.09;;;18.53;98.78
19600;BME280;9947;57.722;12.012;2022-07-22T08:59:49;100790.66;;;18.37;98.40
19600;BME280;9947;57.722;12.012;2022-07-22T09:02:16;100794.22;;;18.29;98.52
19600;BME280;9947;57.722;12.012;2022-07-22T09:04:57;100792.69;;;18.27;98.28
19600;BME280;9947;57.722;12.012;2022-07-22T09:07:26;100793.03;;;18.32;98.45
19600;BME280;9947;57.722;12.012;2022-07-22T09:09:53;100790.28;;;18.32;98.59
19600;BME280;9947;57.722;12.012;2022-07-22T09:12:21;100782.94;;;18.40;97.57
19600;BME280;9947;57.722;12.012;2022-07-22T09:14:50;100790.97;;;18.26;98.37
19600;BME280;9947;57.722;12.012;2022-07-22T09:17:25;100789.44;;;18.31;98.63
19600;BME280;9947;57.722;12.012;2022-07-22T09:19:54;100785.53;;;18.42;98.30
19600;BME280;9947;57.722;12.012;2022-07-22T09:22:36;100792.69;;;18.27;98.87
19600;BME280;9947;57.722;12.012;2022-07-22T09:25:25;100794.66;;;18.08;98.53
19600;BME280;9947;57.722;12.012;2022-07-22T09:27:53;100792.06;;;17.99;98.56
19600;BME280;9947;57.722;12.012;2022-07-22T09:30:22;100814.31;;;18.04;98.09
19600;BME280;9947;57.722;12.012;2022-07-22T09:32:50;100807.31;;;18.09;98.40
19600;BME280;9947;57.722;12.012;2022-07-22T09:35:19;100811.66;;;18.28;98.50
19600;BME280;9947;57.722;12.012;2022-07-22T09:37:51;100809.34;;;18.07;97.88
19600;BME280;9947;57.722;12.012;2022-07-22T09:40:20;100818.13;;;18.19;97.94
19600;BME280;9947;57.722;12.012;2022-07-22T09:42:52;100822.00;;;18.08;97.87
19600;BME280;9947;57.722;12.012;2022-07-22T09:45:22;100823.63;;;17.93;96.33
19600;BME280;9947;57.722;12.012;2022-07-22T09:47:49;100823.09;;;17.64;95.31
19600;BME280;9947;57.722;12.012;2022-07-22T09:50:22;100823.16;;;17.46;94.87
19600;BME280;9947;57.722;12.012;2022-07-22T09:52:52;100834.28;;;17.70;93.81
19600;BME280;9947;57.722;12.012;2022-07-22T09:55:21;100836.59;;;17.65;94.06
19600;BME280;9947;57.722;12.012;2022-07-22T09:57:49;100839.03;;;17.68;94.45
19600;BME280;9947;57.722;12.012;2022-07-22T10:00:18;100847.47;;;17.75;94.25
19600;BME280;9947;57.722;12.012;2022-07-22T10:02:47;100841.16;;;17.74;94.25
19600;BME280;9947;57.722;12.012;2022-07-22T10:05:16;100844.50;;;17.94;93.93
19600;BME280;9947;57.722;12.012;2022-07-22T10:07:46;100847.28;;;18.02;93.56
19600;BME280;9947;57.722;12.012;2022-07-22T10:10:15;100853.03;;;17.91;94.21
19600;BME280;9947;57.722;12.012;2022-07-22T10:12:44;100855.22;;;17.87;94.07
19600;BME280;9947;57.722;12.012;2022-07-22T10:15:12;100851.22;;;18.00;94.14
19600;BME280;9947;57.722;12.012;2022-07-22T10:17:42;100846.63;;;18.08;94.02
19600;BME280;9947;57.722;12.012;2022-07-22T10:20:10;100854.16;;;18.06;94.81
19600;BME280;9947;57.722;12.012;2022-07-22T10:22:50;100852.13;;;18.16;94.23
19600;BME280;9947;57.722;12.012;2022-07-22T10:25:18;100853.09;;;17.99;94.37
19600;BME280;9947;57.722;12.012;2022-07-22T10:27:46;100857.88;;;17.97;94.75
19600;BME280;9947;57.722;12.012;2022-07-22T10:30:16;100853.09;;;17.99;94.88
19600;BME280;9947;57.722;12.012;2022-07-22T10:32:43;100858.47;;;18.17;95.47
19600;BME280;9947;57.722;12.012;2022-07-22T10:35:21;100854.88;;;18.16;95.97
19600;BME280;9947;57.722;12.012;2022-07-22T10:37:51;100851.22;;;18.42;96.47
19600;BME280;9947;57.722;12.012;2022-07-22T10:40:19;100850.94;;;18.61;96.95
19600;BME280;9947;57.722;12.012;2022-07-22T10:43:11;100847.06;;;18.72;97.60
19600;BME280;9947;57.722;12.012;2022-07-22T10:45:44;100850.03;;;19.03;98.17
19600;BME280;9947;57.722;12.012;2022-07-22T10:48:14;100845.06;;;19.47;98.65
19600;BME280;9947;57.722;12.012;2022-07-22T10:50:47;100841.09;;;19.74;99.44
19600;BME280;9947;57.722;12.012;2022-07-22T10:53:18;100844.03;;;19.81;99.36
19600;BME280;9947;57.722;12.012;2022-07-22T10:56:01;100842.75;;;20.08;99.32
19600;BME280;9947;57.722;12.012;2022-07-22T10:58:43;100847.53;;;20.14;99.23
19600;BME280;9947;57.722;12.012;2022-07-22T11:01:11;100849.84;;;20.41;99.21
19600;BME280;9947;57.722;12.012;2022-07-22T11:03:40;100848.47;;;20.29;99.19
19600;BME280;9947;57.722;12.012;2022-07-22T11:06:25;100842.13;;;19.89;99.04
19600;BME280;9947;57.722;12.012;2022-07-22T11:08:56;100844.59;;;20.15;99.35
19600;BME280;9947;57.722;12.012;2022-07-22T11:11:34;100844.38;;;20.25;99.09
19600;BME280;9947;57.722;12.012;2022-07-22T11:14:11;100840.16;;;20.14;98.95
19600;BME280;9947;57.722;12.012;2022-07-22T11:16:38;100837.34;;;19.83;98.89
19600;BME280;9947;57.722;12.012;2022-07-22T11:19:05;100844.25;;;19.55;99.07
19600;BME280;9947;57.722;12.012;2022-07-22T11:21:33;100846.63;;;19.66;99.28
19600;BME280;9947;57.722;12.012;2022-07-22T11:24:04;100838.75;;;19.55;99.35
19600;BME280;9947;57.722;12.012;2022-07-22T11:26:38;100848.19;;;19.60;99.32
19600;BME280;9947;57.722;12.012;2022-07-22T11:29:07;100845.25;;;19.62;99.36
19600;BME280;9947;57.722;12.012;2022-07-22T11:31:34;100861.50;;;19.23;99.65
19600;BME280;9947;57.722;12.012;2022-07-22T11:34:05;100856.84;;;18.91;99.72
19600;BME280;9947;57.722;12.012;2022-07-22T11:36:34;100859.59;;;18.91;99.94
19600;BME280;9947;57.722;12.012;2022-07-22T11:39:03;100854.41;;;18.71;99.95
19600;BME280;9947;57.722;12.012;2022-07-22T11:41:30;100862.69;;;18.88;99.87
19600;BME280;9947;57.722;12.012;2022-07-22T11:43:59;100861.78;;;18.71;100.00
19600;BME280;9947;57.722;12.012;2022-07-22T11:46:34;100864.56;;;18.95;100.00
19600;BME280;9947;57.722;12.012;2022-07-22T11:49:01;100861.84;;;19.03;100.00
19600;BME280;9947;57.722;12.012;2022-07-22T11:51:33;100864.38;;;18.81;100.00
19600;BME280;9947;57.722;12.012;2022-07-22T11:54:02;100866.59;;;18.77;100.00
19600;BME280;9947;57.722;12.012;2022-07-22T11:56:29;100877.56;;;18.93;100.00
19600;BME280;9947;57.722;12.012;2022-07-22T11:58:56;100869.00;;;18.88;100.00
19600;BME280;9947;57.722;12.012;2022-07-22T12:01:25;100868.66;;;18.75;100.00
19600;BME280;9947;57.722;12.012;2022-07-22T12:03:53;100873.28;;;18.99;100.00
19600;BME280;9947;57.722;12.012;2022-07-22T12:06:22;100875.84;;;18.92;100.00
19600;BME280;9947;57.722;12.012;2022-07-22T12:08:52;100872.94;;;18.86;100.00
19600;BME280;9947;57.722;12.012;2022-07-22T12:11:22;100870.59;;;19.15;100.00
19600;BME280;9947;57.722;12.012;2022-07-22T12:13:51;100869.22;;;19.11;100.00
19600;BME280;9947;57.722;12.012;2022-07-22T12:16:27;100865.28;;;19.14;100.00
19600;BME280;9947;57.722;12.012;2022-07-22T12:18:56;100866.97;;;18.90;100.00
19600;BME280;9947;57.722;12.012;2022-07-22T12:21:25;100862.69;;;18.96;100.00
19600;BME280;9947;57.722;12.012;2022-07-22T12:23:54;100869.13;;;18.70;100.00
19600;BME280;9947;57.722;12.012;2022-07-22T12:26:43;100870.50;;;18.66;100.00
19600;BME280;9947;57.722;12.012;2022-07-22T12:29:18;100870.91;;;18.96;100.00
19600;BME280;9947;57.722;12.012;2022-07-22T12:31:47;100871.50;;;18.65;100.00
19600;BME280;9947;57.722;12.012;2022-07-22T12:34:15;100867.72;;;18.58;100.00
19600;BME280;9947;57.722;12.012;2022-07-22T12:36:46;100864.22;;;18.82;100.00
19600;BME280;9947;57.722;12.012;2022-07-22T12:39:16;100864.44;;;19.05;100.00
19600;BME280;9947;57.722;12.012;2022-07-22T12:41:49;100861.81;;;18.79;100.00
19600;BME280;9947;57.722;12.012;2022-07-22T12:44:18;100864.78;;;19.02;100.00
19600;BME280;9947;57.722;12.012;2022-07-22T12:46:46;100873.84;;;19.02;100.00
19600;BME280;9947;57.722;12.012;2022-07-22T12:49:15;100866.47;;;19.03;100.00
19600;BME280;9947;57.722;12.012;2022-07-22T12:51:42;100872.66;;;19.37;100.00
19600;BME280;9947;57.722;12.012;2022-07-22T12:54:12;100876.25;;;19.14;100.00
19600;BME280;9947;57.722;12.012;2022-07-22T12:56:39;100877.44;;;19.11;100.00